Time;durP1;ratioP1;P1;durP2;ratioP2;P2;SDS_P1;SDS_P2;PMS_P1;PMS_P2;Temp;Humidity;BMP_temperature;BMP_pressure;BME280_temperature;BME280_humidity;BME280_pressure;Samples;Min_cycle;Max_cycle;Signal;HPM_P1;HPM_P2
2021/12/07 00:01:22;;;;;;;4.57;1.75;;;;;;;;;;5009807;28;20077;-55
2021/12/07 00:03:49;;;;;;;3.15;1.52;;;;;;;;;;5004746;28;20686;-54
2021/12/07 00:06:18;;;;;;;4.97;2.03;;;;;;;;;;5010413;28;20089;-53
2021/12/07 00:08:45;;;;;;;5.30;1.95;;;;;;;;;;5022137;28;20057;-52
2021/12/07 00:11:12;;;;;;;3.83;1.75;;;;;;;;;;5012108;28;20116;-53
2021/12/07 00:13:42;;;;;;;4.32;1.92;;;;;;;;;;5006630;28;20049;-57
2021/12/07 00:16:10;;;;;;;4.13;1.73;;;;;;;;;;5009169;28;20523;-56
2021/12/07 00:18:37;;;;;;;5.70;2.47;;;;;;;;;;5043739;28;20061;-55
2021/12/07 00:21:04;;;;;;;6.00;2.50;;;;;;;;;;5004383;28;20068;-54
2021/12/07 00:23:31;;;;;;;4.70;2.33;;;;;;;;;;5009408;28;20061;-53
2021/12/07 00:25:58;;;;;;;7.97;2.47;;;;;;;;;;5006547;28;20065;-56
2021/12/07 00:28:25;;;;;;;5.75;2.35;;;;;;;;;;5009758;28;20062;-55
2021/12/07 00:30:54;;;;;;;6.20;2.45;;;;;;;;;;5004918;28;20060;-53
2021/12/07 00:33:35;;;;;;;6.45;2.40;;;;;;;;;;5009776;28;20424;-56
2021/12/07 00:36:03;;;;;;;5.55;2.10;;;;;;;;;;5006267;28;20049;-56
2021/12/07 00:38:30;;;;;;;6.30;2.38;;;;;;;;;;5009949;28;20132;-56
2021/12/07 00:40:58;;;;;;;5.32;2.13;;;;;;;;;;5008870;28;20078;-54
2021/12/07 00:43:26;;;;;;;4.73;2.50;;;;;;;;;;5045870;28;20108;-55
2021/12/07 00:45:57;;;;;;;5.63;2.60;;;;;;;;;;5004567;28;20077;-58
2021/12/07 00:48:24;;;;;;;3.78;1.55;;;;;;;;;;5000132;28;20068;-56
2021/12/07 00:50:51;;;;;;;6.25;2.38;;;;;;;;;;5004901;28;20065;-55
2021/12/07 00:53:17;;;;;;;5.03;2.20;;;;;;;;;;5009309;28;20145;-57
2021/12/07 00:55:47;;;;;;;5.70;2.10;;;;;;;;;;5005302;28;20136;-56
2021/12/07 00:58:17;;;;;;;6.93;2.45;;;;;;;;;;5008868;28;20152;-57
2021/12/07 01:00:44;;;;;;;5.40;2.13;;;;;;;;;;5005526;28;20112;-55
2021/12/07 01:03:12;;;;;;;5.97;2.28;;;;;;;;;;5009418;28;20053;-52
2021/12/07 01:05:46;;;;;;;5.80;2.17;;;;;;;;;;5005311;28;20064;-53
2021/12/07 01:08:22;;;;;;;6.25;2.60;;;;;;;;;;5008860;28;20082;-55
2021/12/07 01:24:43;;;;;;;5.05;2.38;;;;;;;;;;5009408;28;20054;-54
2021/12/07 01:27:11;;;;;;;6.70;2.45;;;;;;;;;;5004075;28;20151;-51
2021/12/07 01:29:39;;;;;;;3.90;1.90;;;;;;;;;;5008496;28;20069;-50
2021/12/07 01:32:15;;;;;;;5.90;2.88;;;;;;;;;;5004741;28;20120;-54
2021/12/07 01:37:37;;;;;;;6.93;3.17;;;;;;;;;;5004618;28;20060;-52
2021/12/07 01:46:02;;;;;;;8.02;3.33;;;;;;;;;;5077164;28;20063;-55
2021/12/07 01:51:31;;;;;;;7.60;3.30;;;;;;;;;;5085220;28;20082;-54
2021/12/07 01:59:37;;;;;;;6.75;2.97;;;;;;;;;;5060452;28;20098;-51
2021/12/07 02:02:05;;;;;;;6.15;3.20;;;;;;;;;;5072731;28;20056;-52
2021/12/07 02:04:33;;;;;;;10.07;3.60;;;;;;;;;;5052287;28;20062;-55
2021/12/07 02:06:59;;;;;;;7.47;3.40;;;;;;;;;;5065704;28;20260;-54
2021/12/07 02:09:26;;;;;;;8.38;3.30;;;;;;;;;;5060172;28;20070;-49
2021/12/07 02:11:58;;;;;;;10.73;4.18;;;;;;;;;;5066035;28;20078;-51
2021/12/07 02:14:25;;;;;;;9.15;3.50;;;;;;;;;;5064342;28;20044;-47
2021/12/07 02:16:55;;;;;;;9.70;3.70;;;;;;;;;;5071464;28;20125;-53
2021/12/07 02:19:21;;;;;;;9.95;3.60;;;;;;;;;;5068163;28;20044;-50
2021/12/07 02:21:49;;;;;;;10.80;3.75;;;;;;;;;;5074774;28;20388;-50
2021/12/07 02:24:16;;;;;;;7.83;3.27;;;;;;;;;;5075531;28;20137;-52
2021/12/07 02:26:44;;;;;;;9.48;3.85;;;;;;;;;;5075855;28;20772;-49
2021/12/07 02:29:11;;;;;;;7.72;3.65;;;;;;;;;;5071155;28;20636;-47
2021/12/07 02:31:37;;;;;;;10.18;3.70;;;;;;;;;;5078278;28;20064;-54
2021/12/07 02:34:05;;;;;;;14.38;4.43;;;;;;;;;;5071108;28;20118;-53
2021/12/07 02:36:32;;;;;;;9.63;3.80;;;;;;;;;;5072168;28;20056;-53
2021/12/07 02:39:00;;;;;;;8.32;3.85;;;;;;;;;;5069818;28;20084;-53
2021/12/07 02:41:26;;;;;;;10.10;4.32;;;;;;;;;;5068473;28;20064;-50
2021/12/07 02:43:53;;;;;;;8.77;3.35;;;;;;;;;;5061312;28;20062;-51
2021/12/07 02:46:20;;;;;;;9.30;3.83;;;;;;;;;;5061961;28;20131;-49
2021/12/07 02:48:46;;;;;;;7.90;3.05;;;;;;;;;;5064241;28;20053;-48
2021/12/07 02:51:12;;;;;;;9.93;3.40;;;;;;;;;;5061065;28;20071;-50
2021/12/07 02:53:39;;;;;;;9.43;3.40;;;;;;;;;;5055373;28;20079;-51
2021/12/07 02:56:08;;;;;;;7.68;3.35;;;;;;;;;;5048295;28;20056;-53
2021/12/07 02:58:36;;;;;;;10.90;2.80;;;;;;;;;;5071551;28;20058;-49
2021/12/07 03:01:08;;;;;;;8.18;2.80;;;;;;;;;;5059769;28;20139;-52
2021/12/07 03:03:40;;;;;;;10.70;3.20;;;;;;;;;;5055256;28;20157;-50
2021/12/07 03:06:16;;;;;;;5.55;2.50;;;;;;;;;;5055117;28;20052;-54
2021/12/07 03:09:15;;;;;;;7.57;2.55;;;;;;;;;;5068376;28;20044;-54
2021/12/07 03:28:09;;;;;;;10.18;2.45;;;;;;;;;;5064022;28;20048;-51
2021/12/07 03:30:37;;;;;;;5.20;2.40;;;;;;;;;;5067784;28;20135;-50
2021/12/07 03:33:04;;;;;;;7.00;2.08;;;;;;;;;;5063908;28;20062;-51
2021/12/07 03:35:35;;;;;;;7.53;2.63;;;;;;;;;;5067787;28;20052;-51
2021/12/07 03:38:02;;;;;;;11.10;2.88;;;;;;;;;;5064164;28;20048;-52
2021/12/07 03:40:30;;;;;;;6.55;2.22;;;;;;;;;;5067503;28;20143;-50
2021/12/07 03:42:56;;;;;;;11.73;2.17;;;;;;;;;;5063379;28;20088;-53
2021/12/07 03:45:25;;;;;;;9.32;2.28;;;;;;;;;;5068159;28;20048;-47
2021/12/07 03:47:51;;;;;;;;;;;;;;;;;;5064485;28;20056;-50
2021/12/07 03:50:20;;;;;;;5.60;1.85;;;;;;;;;;5067586;28;19924;-52
2021/12/07 03:52:47;;;;;;;6.95;2.17;;;;;;;;;;5063458;28;20167;-47
2021/12/07 03:55:13;;;;;;;8.50;2.28;;;;;;;;;;5067823;28;20052;-52
2021/12/07 03:57:40;;;;;;;5.72;2.10;;;;;;;;;;5064963;28;20135;-50
2021/12/07 04:00:08;;;;;;;8.60;2.00;;;;;;;;;;5067934;28;20052;-51
2021/12/07 04:02:40;;;;;;;6.00;2.05;;;;;;;;;;5064377;28;20076;-53
2021/12/07 04:05:11;;;;;;;5.85;1.88;;;;;;;;;;5046747;28;20115;-50
2021/12/07 04:07:37;;;;;;;5.45;1.73;;;;;;;;;;5051112;28;20506;-53
2021/12/07 04:10:04;;;;;;;6.53;1.90;;;;;;;;;;5066904;28;20048;-54
2021/12/07 04:12:31;;;;;;;4.32;1.88;;;;;;;;;;5063418;28;20044;-54
2021/12/07 04:14:58;;;;;;;5.32;1.77;;;;;;;;;;5064628;28;20052;-51
2021/12/07 04:17:25;;;;;;;6.65;1.55;;;;;;;;;;5070955;28;20056;-51
2021/12/07 04:19:52;;;;;;;6.00;1.55;;;;;;;;;;5080605;28;20052;-54
2021/12/07 04:22:19;;;;;;;6.97;1.58;;;;;;;;;;5091244;28;20138;-50
2021/12/07 04:24:46;;;;;;;5.20;1.48;;;;;;;;;;5073725;28;20151;-51
2021/12/07 04:27:12;;;;;;;4.78;1.67;;;;;;;;;;5072939;28;20052;-47
2021/12/07 04:29:39;;;;;;;4.68;1.35;;;;;;;;;;5077885;28;20039;-55
2021/12/07 04:32:06;;;;;;;8.27;1.42;;;;;;;;;;5091740;28;20048;-54
2021/12/07 04:34:33;;;;;;;8.43;2.10;;;;;;;;;;5074272;28;20083;-55
2021/12/07 04:37:01;;;;;;;6.03;1.52;;;;;;;;;;5072275;28;20500;-54
2021/12/07 04:39:27;;;;;;;4.00;1.30;;;;;;;;;;5067774;28;20480;-53
2021/12/07 04:41:54;;;;;;;3.60;1.50;;;;;;;;;;5066391;28;20310;-55
2021/12/07 04:44:22;;;;;;;5.35;1.50;;;;;;;;;;5063255;28;20049;-51
2021/12/07 04:47:00;;;;;;;3.90;1.48;;;;;;;;;;5066434;28;20056;-52
2021/12/07 04:57:40;;;;;;;2.95;1.13;;;;;;;;;;5070580;28;20101;-52
2021/12/07 05:00:07;;;;;;;5.78;1.48;;;;;;;;;;5063532;28;20196;-50
2021/12/07 05:02:36;;;;;;;7.90;1.55;;;;;;;;;;5065876;28;20151;-49
2021/12/07 05:05:03;;;;;;;6.70;1.08;;;;;;;;;;5062858;28;20076;-53
2021/12/07 05:07:35;;;;;;;7.00;1.17;;;;;;;;;;5086326;28;20060;-50
2021/12/07 05:10:15;;;;;;;5.95;1.08;;;;;;;;;;5085235;28;20248;-51
2021/12/07 05:12:56;;;;;;;11.18;1.15;;;;;;;;;;5053616;28;20556;-51
2021/12/07 05:15:29;;;;;;;3.55;1.00;;;;;;;;;;5063071;28;20121;-53
2021/12/07 05:18:06;;;;;;;6.97;1.25;;;;;;;;;;5045101;28;20056;-52
2021/12/07 05:34:41;;;;;;;7.38;1.77;;;;;;;;;;5066187;28;20474;-50
2021/12/07 05:39:54;;;;;;;3.38;1.10;;;;;;;;;;5065758;28;20147;-54
2021/12/07 05:42:21;;;;;;;4.15;1.38;;;;;;;;;;5062228;28;20065;-50
2021/12/07 05:44:49;;;;;;;6.60;1.75;;;;;;;;;;5066277;28;20059;-54
2021/12/07 05:47:16;;;;;;;3.47;1.20;;;;;;;;;;5063094;28;20106;-52
2021/12/07 05:49:43;;;;;;;8.48;1.23;;;;;;;;;;5066783;28;20068;-53
2021/12/07 05:52:09;;;;;;;3.72;1.27;;;;;;;;;;5065480;28;20151;-50
2021/12/07 05:54:36;;;;;;;13.98;3.28;;;;;;;;;;5069270;28;20067;-50
2021/12/07 05:57:04;;;;;;;18.73;5.25;;;;;;;;;;5062607;28;20056;-55
2021/12/07 05:59:30;;;;;;;20.85;5.25;;;;;;;;;;5067843;28;20056;-55
2021/12/07 06:01:57;;;;;;;9.90;2.33;;;;;;;;;;5065313;28;20072;-55
2021/12/07 06:04:23;;;;;;;7.68;1.65;;;;;;;;;;5061156;28;20061;-53
2021/12/07 06:06:50;;;;;;;5.70;1.60;;;;;;;;;;5060887;28;20163;-48
2021/12/07 06:09:16;;;;;;;8.18;1.38;;;;;;;;;;5047357;28;20057;-51
2021/12/07 06:11:44;;;;;;;8.55;1.65;;;;;;;;;;5064993;28;20143;-50
2021/12/07 06:14:18;;;;;;;4.93;1.77;;;;;;;;;;5060817;28;20057;-48
2021/12/07 06:16:44;;;;;;;8.52;1.50;;;;;;;;;;5064298;28;20501;-49
2021/12/07 06:19:11;;;;;;;9.18;1.58;;;;;;;;;;5061152;28;20052;-50
2021/12/07 06:21:37;;;;;;;5.82;1.08;;;;;;;;;;5064846;28;20059;-54
2021/12/07 06:24:04;;;;;;;10.55;1.65;;;;;;;;;;5061232;28;20080;-53
2021/12/07 06:26:34;;;;;;;7.82;1.40;;;;;;;;;;5064518;28;20157;-55
2021/12/07 06:29:01;;;;;;;4.18;1.00;;;;;;;;;;5064117;28;20053;-52
2021/12/07 06:31:28;;;;;;;6.63;1.40;;;;;;;;;;5068776;28;20048;-55
2021/12/07 06:33:55;;;;;;;5.60;1.30;;;;;;;;;;5066762;28;20079;-56
2021/12/07 06:36:24;;;;;;;5.82;1.60;;;;;;;;;;5068556;28;20106;-57
2021/12/07 06:38:50;;;;;;;4.55;1.25;;;;;;;;;;5064900;28;20053;-57
2021/12/07 06:41:17;;;;;;;7.25;1.30;;;;;;;;;;5068187;28;20573;-55
2021/12/07 06:43:44;;;;;;;6.13;1.30;;;;;;;;;;5067338;28;20060;-56
2021/12/07 06:46:11;;;;;;;5.82;1.42;;;;;;;;;;5067788;28;20144;-55
2021/12/07 06:48:39;;;;;;;5.30;1.60;;;;;;;;;;5069254;28;20068;-57
2021/12/07 06:51:05;;;;;;;6.70;1.60;;;;;;;;;;5065656;28;20076;-55
2021/12/07 06:53:36;;;;;;;9.23;1.75;;;;;;;;;;5067029;28;20394;-56
2021/12/07 06:56:04;;;;;;;8.40;1.70;;;;;;;;;;5071993;28;20053;-56
2021/12/07 06:58:30;;;;;;;9.50;2.13;;;;;;;;;;5067923;28;20136;-51
2021/12/07 07:00:57;;;;;;;4.15;1.38;;;;;;;;;;5064259;28;20057;-50
2021/12/07 07:03:23;;;;;;;5.32;1.45;;;;;;;;;;5068024;28;20172;-53
2021/12/07 07:05:52;;;;;;;6.25;1.83;;;;;;;;;;5064801;28;20457;-51
2021/12/07 07:08:19;;;;;;;7.68;1.90;;;;;;;;;;5067482;28;20059;-55
2021/12/07 07:10:46;;;;;;;11.85;1.70;;;;;;;;;;5064138;28;20143;-54
2021/12/07 07:13:13;;;;;;;7.22;1.58;;;;;;;;;;5069477;28;20106;-54
2021/12/07 07:15:40;;;;;;;7.10;2.22;;;;;;;;;;5067424;28;20505;-54
2021/12/07 07:18:07;;;;;;;7.50;1.90;;;;;;;;;;5071632;28;20062;-55
2021/12/07 07:20:33;;;;;;;6.05;1.65;;;;;;;;;;5066496;28;20052;-59
2021/12/07 07:23:01;;;;;;;6.70;2.40;;;;;;;;;;5068311;28;20102;-52
2021/12/07 07:25:28;;;;;;;15.23;4.63;;;;;;;;;;5066302;28;20131;-56
2021/12/07 07:27:55;;;;;;;20.88;4.13;;;;;;;;;;5048515;28;20295;-53
2021/12/07 07:30:21;;;;;;;8.43;2.20;;;;;;;;;;5048063;28;20102;-55
2021/12/07 07:32:48;;;;;;;9.85;1.90;;;;;;;;;;5080799;28;20525;-55
2021/12/07 07:35:16;;;;;;;5.13;1.50;;;;;;;;;;5088482;28;20102;-54
2021/12/07 07:37:42;;;;;;;8.35;1.60;;;;;;;;;;5069030;28;20052;-57
2021/12/07 07:40:12;;;;;;;9.85;2.17;;;;;;;;;;5066116;28;20090;-57
2021/12/07 07:42:39;;;;;;;5.53;2.00;;;;;;;;;;5064054;28;20080;-56
2021/12/07 07:45:06;;;;;;;6.88;1.58;;;;;;;;;;5068399;28;20068;-57
2021/12/07 07:47:32;;;;;;;5.45;1.80;;;;;;;;;;5074705;28;20044;-51
2021/12/07 07:49:59;;;;;;;6.95;1.38;;;;;;;;;;5087902;28;20116;-55
2021/12/07 07:52:25;;;;;;;10.68;1.58;;;;;;;;;;5083602;28;20101;-56
2021/12/07 07:54:52;;;;;;;7.82;1.42;;;;;;;;;;5087725;28;20048;-54
2021/12/07 07:57:20;;;;;;;8.60;1.17;;;;;;;;;;5082768;28;20055;-54
2021/12/07 07:59:46;;;;;;;4.03;1.63;;;;;;;;;;5088329;28;20052;-54
2021/12/07 08:02:13;;;;;;;10.25;2.50;;;;;;;;;;5080448;28;20052;-58
2021/12/07 08:04:40;;;;;;;11.88;2.42;;;;;;;;;;5067494;28;20135;-52
2021/12/07 08:07:07;;;;;;;8.85;1.75;;;;;;;;;;5064652;28;20414;-52
2021/12/07 08:09:33;;;;;;;8.32;1.92;;;;;;;;;;5048700;28;20475;-56
2021/12/07 08:12:00;;;;;;;11.13;1.77;;;;;;;;;;5051811;28;20102;-54
2021/12/07 08:14:29;;;;;;;7.20;1.38;;;;;;;;;;5063544;28;20175;-53
2021/12/07 08:16:55;;;;;;;3.72;1.17;;;;;;;;;;5068353;28;20128;-58
2021/12/07 08:19:22;;;;;;;3.30;1.02;;;;;;;;;;5064834;28;20052;-54
2021/12/07 08:21:50;;;;;;;7.70;1.20;;;;;;;;;;5068050;28;20050;-56
2021/12/07 08:24:16;;;;;;;6.15;1.40;;;;;;;;;;5064838;28;20056;-58
2021/12/07 08:26:43;;;;;;;5.43;1.33;;;;;;;;;;5068649;28;20076;-58
2021/12/07 08:29:10;;;;;;;4.68;1.38;;;;;;;;;;5065672;28;20051;-57
2021/12/07 08:31:38;;;;;;;5.43;1.20;;;;;;;;;;5068803;28;20084;-58
2021/12/07 08:34:04;;;;;;;5.72;1.33;;;;;;;;;;5073379;28;20080;-55
2021/12/07 08:36:33;;;;;;;4.57;1.33;;;;;;;;;;5089366;28;20177;-57
2021/12/07 08:39:00;;;;;;;7.95;1.30;;;;;;;;;;5084880;28;20052;-58
2021/12/07 08:41:26;;;;;;;4.90;1.20;;;;;;;;;;5090079;28;20058;-55
2021/12/07 08:43:53;;;;;;;10.27;1.52;;;;;;;;;;5082196;28;20048;-61
2021/12/07 08:46:20;;;;;;;3.28;1.17;;;;;;;;;;5068830;28;20052;-56
2021/12/07 08:48:48;;;;;;;4.05;1.58;;;;;;;;;;5064477;28;20052;-54
2021/12/07 08:51:17;;;;;;;5.10;1.33;;;;;;;;;;5066631;28;20067;-56
2021/12/07 08:53:50;;;;;;;3.53;1.30;;;;;;;;;;5066749;28;20135;-57
2021/12/07 09:01:46;;;;;;;6.90;1.95;;;;;;;;;;5066442;28;20509;-54
2021/12/07 09:04:17;;;;;;;6.70;1.73;;;;;;;;;;5065032;28;20102;-57
2021/12/07 09:06:44;;;;;;;3.78;1.38;;;;;;;;;;5065187;28;20144;-56
2021/12/07 09:09:10;;;;;;;8.52;1.90;;;;;;;;;;5068635;28;20511;-55
2021/12/07 09:11:37;;;;;;;6.38;2.22;;;;;;;;;;5080095;28;20074;-56
2021/12/07 09:14:04;;;;;;;14.95;2.47;;;;;;;;;;5065895;28;20147;-56
2021/12/07 09:16:30;;;;;;;6.80;1.92;;;;;;;;;;5062949;28;20051;-55
2021/12/07 09:18:57;;;;;;;8.25;1.88;;;;;;;;;;5065942;28;20082;-56
2021/12/07 09:21:25;;;;;;;8.10;1.75;;;;;;;;;;5074471;28;20150;-57
2021/12/07 09:23:52;;;;;;;14.70;2.40;;;;;;;;;;5085743;28;20056;-55
2021/12/07 09:26:19;;;;;;;11.23;1.80;;;;;;;;;;5071680;28;20044;-57
2021/12/07 09:28:46;;;;;;;8.88;2.63;;;;;;;;;;5065861;28;20048;-56
2021/12/07 09:31:13;;;;;;;7.55;1.85;;;;;;;;;;5065087;28;20052;-55
2021/12/07 09:33:41;;;;;;;14.03;3.63;;;;;;;;;;5071568;28;20047;-53
2021/12/07 09:36:10;;;;;;;8.13;2.33;;;;;;;;;;5066874;28;20336;-54
2021/12/07 09:38:38;;;;;;;16.67;3.08;;;;;;;;;;5066777;28;20076;-56
2021/12/07 09:41:05;;;;;;;7.18;2.40;;;;;;;;;;5064696;28;20489;-55
2021/12/07 09:43:32;;;;;;;13.68;2.65;;;;;;;;;;5068832;28;20040;-55
2021/12/07 09:45:59;;;;;;;6.55;1.95;;;;;;;;;;5066376;28;20052;-56
2021/12/07 09:48:26;;;;;;;10.80;2.17;;;;;;;;;;5089177;28;20052;-53
2021/12/07 09:50:53;;;;;;;10.32;3.10;;;;;;;;;;5088855;28;20071;-55
2021/12/07 09:53:20;;;;;;;12.77;2.70;;;;;;;;;;5066283;28;20056;-56
2021/12/07 09:55:51;;;;;;;15.45;2.83;;;;;;;;;;5069336;28;20071;-54
2021/12/07 09:58:19;;;;;;;11.48;2.47;;;;;;;;;;5065299;28;20072;-57
2021/12/07 10:00:46;;;;;;;11.47;2.43;;;;;;;;;;5069458;28;20052;-57
2021/12/07 10:03:13;;;;;;;11.20;3.03;;;;;;;;;;5066842;28;20052;-56
2021/12/07 10:05:41;;;;;;;8.43;2.58;;;;;;;;;;5073643;28;20143;-55
2021/12/07 10:08:09;;;;;;;9.52;2.80;;;;;;;;;;5082634;28;20047;-58
2021/12/07 10:10:37;;;;;;;16.30;2.80;;;;;;;;;;5096058;28;20497;-56
2021/12/07 10:13:07;;;;;;;10.73;2.20;;;;;;;;;;5078623;28;20056;-55
2021/12/07 10:15:35;;;;;;;10.20;2.13;;;;;;;;;;5072989;28;20060;-53
2021/12/07 10:18:02;;;;;;;10.07;2.25;;;;;;;;;;5075532;28;20058;-55
2021/12/07 10:20:37;;;;;;;12.70;2.38;;;;;;;;;;5093097;28;20079;-55
2021/12/07 10:23:05;;;;;;;11.48;2.55;;;;;;;;;;5082363;28;20060;-53
2021/12/07 10:25:32;;;;;;;9.00;2.30;;;;;;;;;;5067242;28;20159;-52
2021/12/07 10:27:58;;;;;;;11.25;1.80;;;;;;;;;;5061007;28;20053;-56
2021/12/07 10:30:27;;;;;;;9.20;1.90;;;;;;;;;;5057588;28;20063;-55
2021/12/07 10:32:58;;;;;;;4.57;1.67;;;;;;;;;;5058133;28;20052;-51
2021/12/07 10:35:31;;;;;;;10.75;2.65;;;;;;;;;;5070314;28;20165;-53
2021/12/07 10:38:12;;;;;;;9.32;2.17;;;;;;;;;;5068210;28;20124;-55
2021/12/07 10:40:54;;;;;;;6.75;1.98;;;;;;;;;;5072493;28;20048;-53
2021/12/07 10:43:35;;;;;;;9.07;1.75;;;;;;;;;;5067245;28;20058;-55
2021/12/07 10:46:24;;;;;;;6.43;2.65;;;;;;;;;;5071744;28;20076;-58
2021/12/07 10:48:51;;;;;;;10.77;2.00;;;;;;;;;;5068836;28;20138;-56
2021/12/07 10:51:17;;;;;;;8.77;2.10;;;;;;;;;;5066020;28;20147;-58
2021/12/07 10:53:52;;;;;;;7.35;1.80;;;;;;;;;;5067074;28;20117;-58
2021/12/07 10:56:29;;;;;;;15.68;2.33;;;;;;;;;;5070508;28;20074;-56
2021/12/07 10:58:58;;;;;;;9.85;2.15;;;;;;;;;;5067754;28;20070;-56
2021/12/07 11:01:32;;;;;;;14.25;2.42;;;;;;;;;;5073439;28;20587;-55
2021/12/07 11:04:14;;;;;;;9.05;2.47;;;;;;;;;;5068320;28;20055;-55
2021/12/07 11:06:56;;;;;;;7.78;2.10;;;;;;;;;;5051177;28;20103;-55
2021/12/07 11:09:23;;;;;;;8.20;2.83;;;;;;;;;;5050231;28;20056;-55
2021/12/07 11:12:05;;;;;;;9.57;1.95;;;;;;;;;;5071409;28;20052;-57
2021/12/07 11:14:38;;;;;;;9.02;1.83;;;;;;;;;;5068000;28;20063;-56
2021/12/07 11:17:06;;;;;;;10.55;2.60;;;;;;;;;;5071301;28;20056;-56
2021/12/07 11:19:33;;;;;;;6.30;1.83;;;;;;;;;;5069116;28;20060;-57
2021/12/07 11:22:00;;;;;;;5.32;1.60;;;;;;;;;;5070742;28;20051;-56
2021/12/07 11:24:34;;;;;;;5.75;1.95;;;;;;;;;;5071751;28;20135;-54
2021/12/07 11:29:49;;;;;;;5.22;1.95;;;;;;;;;;5073215;28;20138;-55
2021/12/07 11:32:18;;;;;;;13.65;2.03;;;;;;;;;;5070760;28;20291;-55
2021/12/07 11:34:46;;;;;;;;;;;;;;;;;;5073532;28;20052;-55
2021/12/07 11:37:14;;;;;;;3.88;1.55;;;;;;;;;;5051131;28;20023;-56
2021/12/07 11:39:46;;;;;;;8.70;2.30;;;;;;;;;;5051521;28;20135;-53
2021/12/07 11:42:14;;;;;;;6.63;1.70;;;;;;;;;;5061737;28;20071;-56
2021/12/07 11:44:46;;;;;;;9.45;1.70;;;;;;;;;;5071344;28;20048;-53
2021/12/07 11:47:16;;;;;;;8.65;1.80;;;;;;;;;;5067663;28;20048;-55
2021/12/07 11:49:44;;;;;;;6.93;2.17;;;;;;;;;;5071068;28;20052;-54
2021/12/07 11:52:11;;;;;;;10.43;2.07;;;;;;;;;;5067087;28;20402;-56
2021/12/07 11:54:40;;;;;;;8.63;2.00;;;;;;;;;;5070746;28;20797;-56
2021/12/07 11:57:06;;;;;;;;;;;;;;;;;;5067831;28;20156;-55
2021/12/07 11:59:32;;;;;;;8.60;1.73;;;;;;;;;;5070705;28;19930;-55
2021/12/07 12:02:00;;;;;;;9.80;2.20;;;;;;;;;;5050748;28;20060;-57
2021/12/07 12:04:26;;;;;;;9.13;1.67;;;;;;;;;;5073306;28;20047;-57
2021/12/07 12:06:55;;;;;;;5.35;2.00;;;;;;;;;;5066830;28;20083;-59
2021/12/07 12:09:22;;;;;;;10.05;1.92;;;;;;;;;;5070462;28;20146;-57
2021/12/07 12:11:52;;;;;;;8.27;2.08;;;;;;;;;;5066758;28;20056;-57
2021/12/07 12:14:27;;;;;;;4.65;1.27;;;;;;;;;;5070302;28;20163;-54
2021/12/07 12:16:59;;;;;;;5.90;1.70;;;;;;;;;;5066801;28;20089;-57
2021/12/07 12:19:32;;;;;;;13.25;2.30;;;;;;;;;;5070505;28;20072;-57
2021/12/07 12:22:06;;;;;;;5.72;1.88;;;;;;;;;;5067035;28;20056;-56
2021/12/07 12:24:38;;;;;;;6.93;1.90;;;;;;;;;;5051092;28;20101;-56
2021/12/07 12:27:08;;;;;;;6.75;1.92;;;;;;;;;;5050763;28;20048;-57
2021/12/07 12:29:35;;;;;;;2.85;1.17;;;;;;;;;;5068970;28;20113;-57
2021/12/07 12:32:02;;;;;;;7.90;1.92;;;;;;;;;;5069670;28;20048;-57
2021/12/07 12:34:29;;;;;;;9.73;2.05;;;;;;;;;;5066241;28;20130;-58
2021/12/07 12:37:03;;;;;;;7.75;1.70;;;;;;;;;;5070383;28;20052;-56
2021/12/07 12:39:43;;;;;;;7.38;1.80;;;;;;;;;;5066955;28;20139;-56
2021/12/07 12:42:10;;;;;;;4.72;1.65;;;;;;;;;;5069695;28;20052;-58
2021/12/07 12:44:37;;;;;;;4.88;1.50;;;;;;;;;;5066355;28;20068;-54
2021/12/07 12:47:05;;;;;;;9.35;1.88;;;;;;;;;;5070304;28;20066;-56
2021/12/07 12:49:36;;;;;;;2.85;1.25;;;;;;;;;;5066559;28;20142;-55
2021/12/07 12:52:05;;;;;;;4.80;1.50;;;;;;;;;;5070674;28;20138;-53
2021/12/07 12:54:38;;;;;;;9.98;1.58;;;;;;;;;;5067769;28;20079;-57
2021/12/07 12:57:10;;;;;;;4.50;1.42;;;;;;;;;;5073173;28;20056;-56
2021/12/07 12:59:38;;;;;;;6.38;1.42;;;;;;;;;;5066517;28;20059;-55
2021/12/07 13:02:04;;;;;;;7.22;1.63;;;;;;;;;;5069980;28;20043;-53
2021/12/07 13:04:34;;;;;;;9.00;1.55;;;;;;;;;;5065952;28;20052;-55
2021/12/07 13:07:06;;;;;;;5.75;1.40;;;;;;;;;;5069203;28;20047;-56
2021/12/07 13:09:36;;;;;;;3.63;1.23;;;;;;;;;;5066024;28;22036;-54
2021/12/07 13:12:04;;;;;;;5.28;1.55;;;;;;;;;;5069038;28;20056;-56
2021/12/07 13:14:46;;;;;;;5.53;1.53;;;;;;;;;;5065752;28;20063;-55
2021/12/07 13:17:18;;;;;;;2.85;1.23;;;;;;;;;;5067906;28;20310;-55
2021/12/07 13:20:02;;;;;;;7.53;1.48;;;;;;;;;;5065585;28;20058;-56
2021/12/07 13:22:34;;;;;;;6.00;1.75;;;;;;;;;;5068985;28;20058;-56
2021/12/07 13:25:06;;;;;;;6.35;1.60;;;;;;;;;;5065297;28;20136;-55
2021/12/07 13:27:32;;;;;;;3.88;1.33;;;;;;;;;;5069683;28;20074;-55
2021/12/07 13:29:59;;;;;;;5.60;1.20;;;;;;;;;;5065544;28;20101;-54
2021/12/07 13:32:25;;;;;;;8.80;1.70;;;;;;;;;;5069125;28;20048;-56
2021/12/07 13:35:00;;;;;;;6.75;1.65;;;;;;;;;;5065430;28;20056;-57
2021/12/07 13:37:42;;;;;;;9.75;1.70;;;;;;;;;;5069176;28;20055;-56
2021/12/07 13:40:17;;;;;;;10.50;1.65;;;;;;;;;;5064826;28;20136;-58
2021/12/07 13:42:47;;;;;;;6.70;1.42;;;;;;;;;;5068579;28;20150;-57
2021/12/07 13:45:17;;;;;;;13.40;1.60;;;;;;;;;;5065906;28;20109;-53
2021/12/07 13:47:44;;;;;;;4.68;1.27;;;;;;;;;;5049016;28;20052;-57
2021/12/07 13:50:12;;;;;;;6.07;1.60;;;;;;;;;;5049022;28;20049;-57
2021/12/07 13:52:40;;;;;;;2.47;1.15;;;;;;;;;;5064566;28;20405;-57
2021/12/07 13:55:09;;;;;;;4.30;1.23;;;;;;;;;;5071057;28;20044;-57
2021/12/07 13:57:39;;;;;;;8.73;1.75;;;;;;;;;;5064167;28;20048;-57
2021/12/07 14:00:09;;;;;;;11.57;1.60;;;;;;;;;;5069083;28;20322;-56
2021/12/07 14:02:36;;;;;;;7.32;1.30;;;;;;;;;;5065456;28;20147;-57
2021/12/07 14:05:06;;;;;;;11.98;1.60;;;;;;;;;;5069276;28;20367;-55
2021/12/07 14:07:33;;;;;;;7.80;1.35;;;;;;;;;;5065108;28;20121;-55
2021/12/07 14:10:04;;;;;;;9.57;1.73;;;;;;;;;;5068806;28;20056;-53
2021/12/07 14:12:30;;;;;;;5.20;1.60;;;;;;;;;;5064740;28;20072;-52
2021/12/07 14:15:06;;;;;;;4.90;1.00;;;;;;;;;;5069372;28;20138;-54
2021/12/07 14:17:40;;;;;;;4.68;1.45;;;;;;;;;;5065756;28;20040;-57
2021/12/07 14:20:07;;;;;;;5.75;1.65;;;;;;;;;;5070512;28;20056;-53
2021/12/07 14:22:34;;;;;;;7.28;1.70;;;;;;;;;;5067452;28;20143;-56
2021/12/07 14:25:00;;;;;;;9.68;1.55;;;;;;;;;;5071033;28;20055;-52
2021/12/07 14:27:27;;;;;;;5.75;1.55;;;;;;;;;;5064714;28;20058;-55
2021/12/07 14:29:53;;;;;;;6.13;1.63;;;;;;;;;;5068398;28;20105;-50
2021/12/07 14:32:21;;;;;;;8.00;1.73;;;;;;;;;;5065638;28;21681;-57
2021/12/07 14:34:49;;;;;;;7.63;1.63;;;;;;;;;;5060242;28;20084;-56
2021/12/07 14:37:16;;;;;;;7.38;2.15;;;;;;;;;;5046230;28;20367;-54
2021/12/07 14:39:43;;;;;;;4.55;1.38;;;;;;;;;;5054387;28;20052;-53
2021/12/07 14:42:11;;;;;;;11.98;1.65;;;;;;;;;;5065229;28;20056;-56
2021/12/07 14:44:39;;;;;;;5.40;1.42;;;;;;;;;;5081796;28;20052;-55
2021/12/07 14:47:07;;;;;;;4.00;1.08;;;;;;;;;;5088932;28;20112;-54
2021/12/07 14:49:37;;;;;;;10.10;1.52;;;;;;;;;;5085735;28;20051;-57
2021/12/07 14:52:08;;;;;;;7.47;1.88;;;;;;;;;;5092230;28;20071;-53
2021/12/07 14:54:35;;;;;;;6.18;1.55;;;;;;;;;;5087978;28;20063;-54
2021/12/07 14:57:02;;;;;;;6.75;1.63;;;;;;;;;;5092477;28;20126;-53
2021/12/07 14:59:28;;;;;;;10.77;2.15;;;;;;;;;;5087729;28;20135;-55
2021/12/07 15:01:56;;;;;;;4.90;1.20;;;;;;;;;;5090026;28;20078;-55
2021/12/07 15:04:24;;;;;;;3.00;1.27;;;;;;;;;;5068193;28;20151;-57
2021/12/07 15:06:52;;;;;;;5.25;1.30;;;;;;;;;;5072007;28;20048;-50
2021/12/07 15:09:20;;;;;;;4.15;1.90;;;;;;;;;;5067547;28;20068;-56
2021/12/07 15:11:47;;;;;;;4.65;1.40;;;;;;;;;;5071806;28;20044;-54
2021/12/07 15:14:15;;;;;;;1.85;0.90;;;;;;;;;;5073579;28;20146;-57
2021/12/07 15:16:47;;;;;;;7.13;1.45;;;;;;;;;;5093832;28;20115;-56
2021/12/07 15:19:13;;;;;;;6.65;1.33;;;;;;;;;;5088780;28;20158;-55
2021/12/07 15:21:40;;;;;;;7.97;1.73;;;;;;;;;;5091942;28;20047;-57
2021/12/07 15:24:10;;;;;;;5.15;1.58;;;;;;;;;;5087411;28;20051;-58
2021/12/07 15:26:39;;;;;;;8.18;2.10;;;;;;;;;;5091924;28;20051;-53
2021/12/07 15:29:07;;;;;;;6.90;1.38;;;;;;;;;;5092133;28;20067;-55
2021/12/07 15:31:34;;;;;;;6.18;1.50;;;;;;;;;;5068248;28;20125;-54
2021/12/07 15:34:01;;;;;;;4.70;1.40;;;;;;;;;;5071117;28;20087;-52
2021/12/07 15:36:29;;;;;;;11.80;1.90;;;;;;;;;;5068570;28;20442;-54
2021/12/07 15:39:07;;;;;;;4.80;1.43;;;;;;;;;;5072153;28;20048;-56
2021/12/07 15:41:35;;;;;;;11.45;1.75;;;;;;;;;;5066961;28;20298;-52
2021/12/07 15:44:02;;;;;;;5.03;1.38;;;;;;;;;;5072765;28;20534;-56
2021/12/07 15:46:46;;;;;;;4.88;1.52;;;;;;;;;;5083359;28;20147;-54
2021/12/07 15:49:12;;;;;;;7.68;1.55;;;;;;;;;;5094830;28;20079;-54
2021/12/07 15:51:47;;;;;;;18.75;1.65;;;;;;;;;;5068168;28;20044;-56
2021/12/07 15:54:13;;;;;;;8.18;1.40;;;;;;;;;;5055717;28;20554;-52
2021/12/07 15:56:41;;;;;;;7.20;1.70;;;;;;;;;;5065704;28;20135;-55
2021/12/07 15:59:12;;;;;;;3.83;1.15;;;;;;;;;;5070111;28;20105;-56
2021/12/07 16:01:39;;;;;;;4.18;1.17;;;;;;;;;;5066433;28;20044;-54
2021/12/07 16:04:05;;;;;;;5.50;1.23;;;;;;;;;;5069605;28;20052;-55
2021/12/07 16:06:36;;;;;;;8.30;1.60;;;;;;;;;;5059256;28;20059;-55
2021/12/07 16:09:14;;;;;;;4.95;1.13;;;;;;;;;;5058739;28;20055;-54
2021/12/07 16:11:41;;;;;;;9.50;1.63;;;;;;;;;;5064910;28;20082;-58